Time;durP1;ratioP1;P1;durP2;ratioP2;P2;SDS_P1;SDS_P2;PMS_P1;PMS_P2;Temp;Humidity;BMP_temperature;BMP_pressure;BME280_temperature;BME280_humidity;BME280_pressure;Samples;Min_cycle;Max_cycle;Signal;HPM_P1;HPM_P2
2022/05/26 00:02:29;;;;;;;3.03;1.67;;;;;;;15.38;100.00;101636.94;5230364;28;20108;-68
2022/05/26 00:05:00;;;;;;;5.28;2.08;;;;;;;15.39;100.00;101641.25;5232726;28;20121;-68
2022/05/26 00:07:32;;;;;;;4.53;1.98;;;;;;;15.37;100.00;101638.72;5231725;28;20025;-68
2022/05/26 00:10:04;;;;;;;4.78;1.98;;;;;;;15.35;100.00;101635.41;5236333;28;20022;-68
2022/05/26 00:12:35;;;;;;;4.03;2.08;;;;;;;15.38;100.00;101639.56;5237096;28;20402;-68
2022/05/26 00:15:07;;;;;;;5.63;2.25;;;;;;;15.36;100.00;101633.59;5237353;28;20478;-68
2022/05/26 00:17:39;;;;;;;3.72;2.00;;;;;;;15.35;100.00;101640.69;5237924;28;20438;-68
2022/05/26 00:20:11;;;;;;;3.45;1.90;;;;;;;15.36;100.00;101639.72;5234014;28;20116;-68
2022/05/26 00:22:42;;;;;;;4.80;2.17;;;;;;;15.35;100.00;101639.88;5234789;28;20053;-69
2022/05/26 00:25:13;;;;;;;3.47;1.77;;;;;;;15.38;100.00;101647.50;5237188;28;20048;-68
2022/05/26 00:27:45;;;;;;;5.03;2.25;;;;;;;15.37;100.00;101648.47;5236135;28;20032;-68
2022/05/26 00:30:16;;;;;;;3.05;1.98;;;;;;;15.39;100.00;101657.94;5235578;28;20044;-69
2022/05/26 00:32:47;;;;;;;5.82;2.17;;;;;;;15.41;100.00;101653.31;5237441;28;20032;-69
2022/05/26 00:35:19;;;;;;;4.10;2.28;;;;;;;15.29;100.00;101642.09;5232339;28;20033;-68
2022/05/26 00:37:51;;;;;;;5.05;2.22;;;;;;;15.37;100.00;101653.75;5234356;28;20585;-68
2022/05/26 00:40:23;;;;;;;5.60;2.78;;;;;;;15.41;100.00;101655.97;5236628;28;20030;-69
2022/05/26 00:42:54;;;;;;;8.88;2.63;;;;;;;15.39;100.00;101657.94;5235178;28;20032;-69
2022/05/26 00:45:36;;;;;;;4.75;2.35;;;;;;;15.46;100.00;101659.03;5233409;28;20040;-69
2022/05/26 00:48:14;;;;;;;9.15;2.30;;;;;;;15.42;100.00;101648.88;5237341;28;20025;-68
2022/05/26 00:50:48;;;;;;;8.15;2.75;;;;;;;15.38;100.00;101665.97;5234946;28;20040;-68
2022/05/26 00:53:42;;;;;;;5.25;3.00;;;;;;;15.42;100.00;101656.78;5234800;28;20029;-68
2022/05/26 00:56:32;;;;;;;6.22;3.05;;;;;;;15.49;100.00;101658.75;5234421;28;20566;-68
2022/05/26 00:59:48;;;;;;;7.43;2.78;;;;;;;15.52;100.00;101653.16;5236190;28;20454;-68
2022/05/26 01:02:23;;;;;;;7.15;2.90;;;;;;;15.41;100.00;101655.13;5227125;28;20045;-68
2022/05/26 01:04:58;;;;;;;6.05;3.22;;;;;;;15.42;100.00;101655.00;5234327;28;20426;-68
2022/05/26 01:07:34;;;;;;;5.78;3.22;;;;;;;15.41;100.00;101653.31;5236217;28;20703;-68
2022/05/26 01:10:07;;;;;;;6.45;3.05;;;;;;;15.36;100.00;101652.91;5234886;28;20549;-68
2022/05/26 01:12:39;;;;;;;11.32;3.47;;;;;;;15.35;100.00;101653.91;5232189;28;20333;-68
2022/05/26 01:15:15;;;;;;;8.68;3.22;;;;;;;15.42;100.00;101662.06;5236513;28;20032;-68
2022/05/26 01:17:52;;;;;;;7.80;3.28;;;;;;;15.32;100.00;101657.66;5235763;28;20478;-68
2022/05/26 01:20:42;;;;;;;8.13;3.83;;;;;;;15.44;100.00;101666.25;5234692;28;20029;-68
2022/05/26 01:23:51;;;;;;;8.93;3.85;;;;;;;15.53;100.00;101657.50;5234637;28;20028;-69
2022/05/26 01:26:55;;;;;;;10.20;4.13;;;;;;;15.45;100.00;101667.91;5235622;28;20049;-68
2022/05/26 01:29:32;;;;;;;;;;;;;;;15.81;100.00;101666.31;5234439;28;20056;-68
2022/05/26 01:32:24;;;;;;;8.57;3.85;;;;;;;15.47;100.00;101673.06;5236399;28;19919;-69
2022/05/26 01:35:22;;;;;;;11.15;4.13;;;;;;;15.62;100.00;101665.53;5234765;28;20414;-69
2022/05/26 01:38:08;;;;;;;10.63;4.28;;;;;;;15.42;100.00;101662.94;5235326;28;20040;-68
2022/05/26 01:40:58;;;;;;;6.75;3.92;;;;;;;15.50;100.00;101673.59;5233939;28;20091;-68
2022/05/26 01:43:44;;;;;;;8.40;4.15;;;;;;;15.47;100.00;101667.78;5234669;28;20039;-69
2022/05/26 01:46:28;;;;;;;7.32;4.25;;;;;;;15.45;100.00;101678.47;5233599;28;20033;-68
2022/05/26 01:49:24;;;;;;;9.63;5.07;;;;;;;15.42;100.00;101677.91;5235611;28;20025;-68
2022/05/26 01:52:12;;;;;;;11.40;4.55;;;;;;;15.45;100.00;101688.19;5234745;28;20542;-68
2022/05/26 01:55:05;;;;;;;13.18;5.20;;;;;;;15.57;100.00;101689.72;5231860;28;20124;-69
2022/05/26 01:57:40;;;;;;;10.82;5.15;;;;;;;15.44;100.00;101687.38;5230717;28;20038;-69
2022/05/26 02:00:15;;;;;;;14.38;5.68;;;;;;;15.41;100.00;101692.94;5234058;28;20108;-69
2022/05/26 02:02:55;;;;;;;11.43;5.90;;;;;;;15.43;100.00;101690.16;5231564;28;20022;-69
2022/05/26 02:05:33;;;;;;;11.40;5.72;;;;;;;15.38;100.00;101685.31;5232540;28;20033;-69
2022/05/26 02:08:11;;;;;;;12.93;6.70;;;;;;;15.40;100.00;101686.00;5233325;28;20399;-68
2022/05/26 02:10:49;;;;;;;12.50;6.40;;;;;;;15.42;100.00;101696.41;5235784;28;20128;-68
2022/05/26 02:13:29;;;;;;;13.63;6.57;;;;;;;15.44;100.00;101708.50;5230750;28;20442;-69
2022/05/26 02:16:10;;;;;;;14.10;7.15;;;;;;;15.42;100.00;101705.19;5234176;28;20041;-68
2022/05/26 02:18:50;;;;;;;13.02;6.82;;;;;;;15.44;100.00;101697.09;5235459;28;20025;-68
2022/05/26 02:21:30;;;;;;;10.88;5.97;;;;;;;15.45;100.00;101707.50;5231244;28;20090;-69
2022/05/26 02:24:08;;;;;;;11.43;6.20;;;;;;;15.43;100.00;101717.41;5235551;28;20026;-69
2022/05/26 02:26:39;;;;;;;14.13;6.13;;;;;;;15.35;100.00;101711.16;5235787;28;20482;-69
2022/05/26 02:32:03;;;;;;;13.63;5.82;;;;;;;15.32;100.00;101715.72;5231605;28;20515;-68
2022/05/26 02:34:35;;;;;;;15.93;7.28;;;;;;;15.31;100.00;101715.88;5231898;28;20037;-68
2022/05/26 02:37:09;;;;;;;11.75;6.97;;;;;;;15.32;100.00;101720.19;5234622;28;20056;-68
2022/05/26 02:39:40;;;;;;;14.63;7.32;;;;;;;15.28;100.00;101716.16;5234623;28;20025;-68
2022/05/26 02:42:12;;;;;;;12.82;6.75;;;;;;;15.29;100.00;101723.09;5234355;28;20028;-68
2022/05/26 02:44:44;;;;;;;12.98;6.30;;;;;;;15.29;100.00;101723.09;5235481;28;20033;-68
2022/05/26 02:47:37;;;;;;;13.85;6.30;;;;;;;15.40;100.00;101722.97;5232441;28;20605;-69
2022/05/26 02:50:11;;;;;;;;;;;;;;;15.76;100.00;101726.69;5231611;28;20791;-69
2022/05/26 02:53:06;;;;;;;16.98;7.28;;;;;;;15.47;100.00;101731.16;5233729;28;19928;-69
2022/05/26 02:55:56;;;;;;;15.52;6.53;;;;;;;15.29;100.00;101725.75;5235083;28;20423;-69
2022/05/26 02:58:40;;;;;;;14.70;7.07;;;;;;;15.37;100.00;101725.03;5231008;28;20490;-69
2022/05/26 03:01:22;;;;;;;15.07;7.82;;;;;;;15.36;100.00;101726.03;5233694;28;20446;-68
2022/05/26 03:04:10;;;;;;;13.65;7.88;;;;;;;15.39;100.00;101731.84;5232226;28;20468;-69
2022/05/26 03:06:49;;;;;;;14.38;7.15;;;;;;;15.28;100.00;101724.06;5235103;28;20031;-68
2022/05/26 03:09:21;;;;;;;16.83;8.23;;;;;;;15.21;100.00;101725.59;5233309;28;20037;-68
2022/05/26 03:11:58;;;;;;;17.23;7.07;;;;;;;15.28;100.00;101734.63;5233588;28;20427;-69
2022/05/26 03:14:29;;;;;;;13.10;7.03;;;;;;;15.22;100.00;101736.00;5233928;28;20112;-69
2022/05/26 03:17:00;;;;;;;16.83;7.25;;;;;;;15.21;100.00;101739.63;5231359;28;20044;-68
2022/05/26 03:19:32;;;;;;;17.85;7.85;;;;;;;15.17;100.00;101726.84;5234837;28;20086;-69
2022/05/26 03:22:03;;;;;;;16.60;8.65;;;;;;;15.14;100.00;101737.69;5231035;28;20033;-69
2022/05/26 03:24:35;;;;;;;15.02;7.78;;;;;;;15.10;100.00;101742.41;5234538;28;20041;-69
2022/05/26 03:27:06;;;;;;;15.57;7.40;;;;;;;15.11;100.00;101737.94;5229124;28;20029;-68
2022/05/26 03:29:38;;;;;;;13.70;7.45;;;;;;;15.08;100.00;101741.72;5231923;28;20041;-69
2022/05/26 03:32:09;;;;;;;18.85;7.97;;;;;;;15.09;100.00;101746.03;5233900;28;20053;-69
2022/05/26 03:43:14;;;;;;;16.98;7.88;;;;;;;15.05;100.00;101755.19;5232229;28;20029;-68
2022/05/26 03:45:46;;;;;;;14.80;6.90;;;;;;;15.07;100.00;101753.22;5236518;28;20037;-69
2022/05/26 03:48:17;;;;;;;17.90;8.17;;;;;;;15.05;100.00;101765.75;5237762;28;20029;-69
2022/05/26 03:50:48;;;;;;;19.60;7.43;;;;;;;15.01;100.00;101759.91;5238437;28;20558;-69
2022/05/26 03:53:20;;;;;;;17.75;7.40;;;;;;;14.99;100.00;101761.00;5236960;28;20493;-68
2022/05/26 03:55:51;;;;;;;15.30;6.95;;;;;;;14.99;100.00;101766.28;5235024;28;20031;-68
2022/05/26 03:58:23;;;;;;;15.30;6.68;;;;;;;14.96;100.00;101767.38;5236501;28;20390;-68
2022/05/26 04:00:55;;;;;;;17.55;7.00;;;;;;;14.92;100.00;101767.78;5233832;28;20040;-68
2022/05/26 04:03:26;;;;;;;17.50;7.30;;;;;;;14.90;100.00;101775.03;5235870;28;20478;-68
2022/05/26 04:05:57;;;;;;;13.45;6.18;;;;;;;14.84;100.00;101771.09;5236765;28;20438;-69
2022/05/26 04:08:28;;;;;;;18.88;7.75;;;;;;;14.80;100.00;101770.53;5236691;28;20490;-68
2022/05/26 04:11:00;;;;;;;18.15;6.97;;;;;;;14.82;100.00;101781.81;5235492;28;20025;-68
2022/05/26 04:13:31;;;;;;;20.80;7.18;;;;;;;14.81;100.00;101776.66;5234273;28;20487;-68
2022/05/26 04:16:03;;;;;;;21.90;7.03;;;;;;;14.80;100.00;101775.81;5236255;28;20347;-69
2022/05/26 04:18:34;;;;;;;19.90;7.10;;;;;;;14.83;100.00;101787.91;5235094;28;20410;-69
2022/05/26 04:21:08;;;;;;;22.85;6.85;;;;;;;14.78;100.00;101783.03;5235099;28;20026;-69
2022/05/26 04:23:40;;;;;;;19.58;7.07;;;;;;;14.80;100.00;101793.44;5237495;28;20033;-68
2022/05/26 04:26:11;;;;;;;15.57;6.60;;;;;;;14.84;100.00;101786.94;5236811;28;20124;-68
2022/05/26 04:28:43;;;;;;;17.45;7.00;;;;;;;14.85;100.00;101791.25;5234691;28;20466;-68
2022/05/26 04:31:14;;;;;;;20.10;6.78;;;;;;;14.86;100.00;101797.38;5235225;28;20082;-68
2022/05/26 04:33:45;;;;;;;21.10;6.38;;;;;;;14.88;100.00;101800.69;5237090;28;20087;-69
2022/05/26 04:36:20;;;;;;;18.70;6.85;;;;;;;14.96;100.00;101801.69;5234270;28;20109;-68
2022/05/26 04:38:51;;;;;;;16.27;6.88;;;;;;;14.88;100.00;101798.88;5235974;28;20038;-68
2022/05/26 04:41:22;;;;;;;23.10;7.25;;;;;;;14.88;100.00;101804.16;5236014;28;20032;-68
2022/05/26 04:43:53;;;;;;;19.20;6.55;;;;;;;14.91;100.00;101803.06;5236140;28;20024;-68
2022/05/26 04:46:25;;;;;;;19.08;6.18;;;;;;;14.91;100.00;101806.53;5235667;28;20087;-68
2022/05/26 04:48:56;;;;;;;17.17;6.03;;;;;;;14.91;100.00;101801.25;5236944;28;20038;-68
2022/05/26 04:51:27;;;;;;;17.08;6.53;;;;;;;14.89;100.00;101805.84;5236590;28;20127;-69
2022/05/26 04:53:59;;;;;;;18.15;5.60;;;;;;;14.97;100.00;101810.47;5215862;28;20117;-69
2022/05/26 04:56:30;;;;;;;17.20;6.05;;;;;;;14.97;100.00;101815.72;5234991;28;20051;-69
2022/05/26 04:59:02;;;;;;;18.67;6.65;;;;;;;14.98;100.00;101825.31;5236040;28;20036;-69
2022/05/26 05:01:34;;;;;;;17.92;6.38;;;;;;;15.01;100.00;101819.78;5234439;28;20493;-69
2022/05/26 05:04:05;;;;;;;15.55;5.80;;;;;;;15.05;100.00;101829.09;5235079;28;20025;-69
2022/05/26 05:06:36;;;;;;;18.83;6.13;;;;;;;15.07;100.00;101835.88;5236648;28;20026;-69
2022/05/26 05:09:07;;;;;;;17.27;6.00;;;;;;;15.14;100.00;101840.63;5233698;28;20033;-69
2022/05/26 05:11:39;;;;;;;15.82;5.32;;;;;;;15.14;100.00;101837.97;5234751;28;20284;-68
2022/05/26 05:14:11;;;;;;;18.30;6.45;;;;;;;15.14;100.00;101844.09;5234595;28;20024;-69
2022/05/26 05:16:43;;;;;;;19.70;7.07;;;;;;;15.18;100.00;101845.50;5237710;28;20044;-69
2022/05/26 05:19:18;;;;;;;18.80;6.28;;;;;;;15.26;100.00;101847.44;5234812;28;20375;-68
2022/05/26 05:22:11;;;;;;;22.23;6.93;;;;;;;15.41;100.00;101850.53;5236232;28;20033;-69
2022/05/26 05:24:52;;;;;;;18.15;5.80;;;;;;;15.41;100.00;101850.53;5235972;28;20457;-69
2022/05/26 05:27:59;;;;;;;16.98;6.28;;;;;;;15.60;100.00;101858.47;5231886;28;20099;-69
2022/05/26 05:30:47;;;;;;;17.92;5.97;;;;;;;15.54;100.00;101859.88;5139828;29;20054;-69
2022/05/26 05:33:40;;;;;;;18.90;6.55;;;;;;;15.49;100.00;101862.09;5230616;28;20045;-69
2022/05/26 05:36:20;;;;;;;18.88;7.60;;;;;;;15.51;100.00;101868.06;5233949;28;20108;-69
2022/05/26 05:38:51;;;;;;;21.27;6.40;;;;;;;15.46;100.00;101877.38;5236949;28;20049;-69
2022/05/26 05:41:23;;;;;;;16.17;6.25;;;;;;;15.54;100.00;101866.97;5231128;28;20076;-69
2022/05/26 05:43:58;;;;;;;19.85;6.78;;;;;;;15.62;100.00;101869.75;5232341;28;20435;-69
2022/05/26 05:46:53;;;;;;;17.83;6.68;;;;;;;15.61;100.00;101877.78;5236558;28;20033;-69
2022/05/26 05:49:30;;;;;;;21.40;7.32;;;;;;;15.62;100.00;101872.38;5233554;28;20033;-69
2022/05/26 05:52:08;;;;;;;16.45;6.25;;;;;;;15.72;100.00;101880.34;5235252;28;20411;-69
2022/05/26 05:54:40;;;;;;;18.23;6.43;;;;;;;15.70;100.00;101877.00;5233538;28;20048;-69
2022/05/26 05:57:11;;;;;;;15.75;6.40;;;;;;;15.77;100.00;101881.59;5234427;28;20025;-69
2022/05/26 05:59:43;;;;;;;15.63;6.03;;;;;;;15.77;100.00;101875.50;5231781;28;20026;-69
2022/05/26 06:02:14;;;;;;;16.17;6.97;;;;;;;15.80;100.00;101880.50;5234599;28;20498;-69
2022/05/26 06:04:45;;;;;;;15.70;6.43;;;;;;;15.91;100.00;101888.28;5232201;28;21234;-69
2022/05/26 06:07:20;;;;;;;18.00;6.40;;;;;;;15.99;100.00;101892.88;5231538;28;20044;-69
2022/05/26 06:09:52;;;;;;;19.35;5.72;;;;;;;16.04;100.00;101890.66;5229693;28;20497;-69
2022/05/26 06:12:23;;;;;;;18.27;6.47;;;;;;;16.10;100.00;101900.66;5214620;28;20056;-69
2022/05/26 06:14:54;;;;;;;18.02;6.32;;;;;;;16.14;100.00;101899.41;5233657;28;20021;-69
2022/05/26 06:17:26;;;;;;;18.58;5.88;;;;;;;16.20;100.00;101904.13;5214953;28;20040;-68
2022/05/26 06:19:57;;;;;;;18.58;7.10;;;;;;;16.19;100.00;101909.56;5228602;28;20087;-68
2022/05/26 06:22:29;;;;;;;20.17;7.18;;;;;;;16.27;100.00;101907.03;5228916;28;20029;-68
2022/05/26 06:25:02;;;;;;;16.93;7.27;;;;;;;16.17;100.00;101906.19;5230033;28;20422;-68
2022/05/26 06:30:26;;;;;;;17.00;7.22;;;;;;;16.42;100.00;101920.66;5230157;28;20037;-68
2022/05/26 06:38:45;;;;;;;20.93;8.40;;;;;;;16.95;100.00;101925.41;5225290;28;20029;-68
2022/05/26 06:44:08;;;;;;;19.33;8.75;;;;;;;17.05;100.00;101928.00;5229612;28;20483;-68
2022/05/26 06:46:40;;;;;;;13.87;7.17;;;;;;;17.13;100.00;101928.13;5231742;28;20434;-69
2022/05/26 06:49:11;;;;;;;12.80;7.20;;;;;;;17.21;100.00;101923.75;5229195;28;20908;-68
2022/05/26 06:51:44;;;;;;;19.20;7.80;;;;;;;17.17;100.00;101926.84;5228612;28;20068;-68
2022/05/26 06:54:17;;;;;;;19.80;8.05;;;;;;;17.07;100.00;101934.84;5233152;28;20183;-68
2022/05/26 06:56:49;;;;;;;18.15;7.95;;;;;;;17.11;100.00;101933.56;5234736;28;20319;-68
2022/05/26 06:59:20;;;;;;;16.52;8.45;;;;;;;17.22;100.00;101933.38;5225202;28;20040;-68
2022/05/26 07:01:52;;;;;;;19.05;8.82;;;;;;;17.16;100.00;101943.69;5224987;28;20029;-68
2022/05/26 07:04:23;;;;;;;20.65;8.93;;;;;;;17.17;100.00;101937.44;5226865;28;20033;-68
2022/05/26 07:06:55;;;;;;;15.60;7.70;;;;;;;17.19;100.00;101946.06;5224653;28;20029;-68
2022/05/26 07:09:27;;;;;;;15.77;8.07;;;;;;;17.17;100.00;101945.41;5211306;28;20036;-68
2022/05/26 07:11:58;;;;;;;15.85;6.90;;;;;;;17.34;100.00;101954.34;5233587;28;20052;-69
2022/05/26 07:14:30;;;;;;;16.55;7.35;;;;;;;17.45;100.00;101949.69;5211791;28;20021;-69
2022/05/26 07:17:01;;;;;;;14.32;7.35;;;;;;;17.58;100.00;101967.91;5228046;28;20402;-68
2022/05/26 07:19:37;;;;;;;13.20;7.00;;;;;;;17.55;100.00;101965.56;5227085;28;20028;-68
2022/05/26 07:22:08;;;;;;;16.55;6.57;;;;;;;17.49;100.00;101968.78;5230945;28;20501;-69
2022/05/26 07:24:41;;;;;;;11.50;6.65;;;;;;;17.62;100.00;101963.97;5228597;28;20068;-69
2022/05/26 07:27:15;;;;;;;12.85;6.30;;;;;;;17.70;100.00;101973.84;5229702;28;20021;-68
2022/05/26 07:29:47;;;;;;;15.77;7.25;;;;;;;17.68;100.00;101970.47;5229491;28;20072;-69
2022/05/26 07:32:20;;;;;;;13.20;6.40;;;;;;;17.78;100.00;101978.41;5223196;28;20646;-68
2022/05/26 07:34:52;;;;;;;12.27;6.55;;;;;;;17.69;100.00;101974.78;5229840;28;20575;-68
2022/05/26 07:43:08;;;;;;;18.02;6.93;;;;;;;17.65;100.00;101982.25;5232194;28;20585;-69
2022/05/26 07:45:39;;;;;;;14.00;6.43;;;;;;;17.77;100.00;101990.84;5229622;28;20037;-68
2022/05/26 07:48:11;;;;;;;12.60;5.73;;;;;;;17.97;100.00;101984.41;5230611;28;20025;-69
2022/05/26 07:50:42;;;;;;;13.02;6.70;;;;;;;17.94;100.00;101987.34;5233381;28;20025;-69
2022/05/26 07:53:13;;;;;;;10.73;6.05;;;;;;;17.90;100.00;101987.81;5231865;28;20037;-69
2022/05/26 07:55:45;;;;;;;13.32;6.22;;;;;;;17.96;99.26;101996.00;5230818;28;20116;-69
2022/05/26 07:58:16;;;;;;;14.50;5.85;;;;;;;18.06;100.00;101984.50;5225866;28;20475;-69
2022/05/26 08:00:52;;;;;;;12.35;6.32;;;;;;;18.05;99.16;101990.78;5213758;28;20504;-69
2022/05/26 08:03:23;;;;;;;13.82;6.53;;;;;;;18.18;100.00;101992.09;5230552;28;20021;-68
2022/05/26 08:05:54;;;;;;;14.40;6.68;;;;;;;18.39;98.97;101998.88;5232145;28;20048;-69
2022/05/26 08:08:26;;;;;;;9.40;5.53;;;;;;;18.55;97.87;101991.03;5215359;28;20025;-69
2022/05/26 08:10:58;;;;;;;13.00;6.50;;;;;;;18.77;98.54;101992.41;5232993;28;20028;-69
2022/05/26 08:13:29;;;;;;;12.20;6.07;;;;;;;18.80;93.17;102001.88;5231997;28;20029;-69
2022/05/26 08:16:00;;;;;;;10.87;5.50;;;;;;;18.97;92.16;102008.94;5229457;28;20088;-69
2022/05/26 08:18:33;;;;;;;11.23;5.90;;;;;;;19.24;91.37;101999.97;5230013;28;20136;-68
2022/05/26 08:21:10;;;;;;;11.30;5.75;;;;;;;19.35;87.83;102001.50;5210504;28;20479;-68
2022/05/26 08:23:41;;;;;;;10.82;4.90;;;;;;;19.69;85.29;101996.19;5231456;28;20061;-68
2022/05/26 08:26:14;;;;;;;11.45;4.05;;;;;;;19.55;79.10;101997.63;5228753;28;20138;-70
2022/05/26 08:28:49;;;;;;;9.70;4.80;;;;;;;19.55;79.22;101999.44;5209699;28;20029;-67
2022/05/26 08:31:20;;;;;;;10.27;4.53;;;;;;;19.44;80.23;102009.38;5234710;28;20035;-68
2022/05/26 08:33:52;;;;;;;10.90;5.03;;;;;;;19.48;78.94;102007.22;5237323;28;20029;-67
2022/05/26 08:36:24;;;;;;;9.63;4.47;;;;;;;19.37;76.20;102012.81;5233340;28;20534;-67
2022/05/26 08:38:55;;;;;;;10.03;4.43;;;;;;;19.53;76.07;102009.38;5235014;28;20033;-68
2022/05/26 08:41:33;;;;;;;10.17;4.90;;;;;;;19.68;77.50;102011.31;5237029;28;20494;-67
2022/05/26 08:44:37;;;;;;;9.38;5.35;;;;;;;19.95;78.62;102011.19;5236115;28;20390;-68
2022/05/26 08:47:11;;;;;;;12.95;6.40;;;;;;;19.74;76.29;102001.03;5218953;28;20514;-68
2022/05/26 08:49:50;;;;;;;9.40;6.72;;;;;;;19.84;77.09;102012.34;5235084;28;20083;-67
2022/05/26 08:52:30;;;;;;;16.15;10.38;;;;;;;19.96;78.11;102016.34;5235494;28;20503;-67
2022/05/26 08:55:07;;;;;;;11.20;9.27;;;;;;;19.74;76.51;102016.97;5234673;28;20159;-67
2022/05/26 08:57:49;;;;;;;13.73;9.38;;;;;;;19.68;76.06;102021.94;5234669;28;20496;-68
2022/05/26 09:00:23;;;;;;;11.90;8.40;;;;;;;19.79;77.56;102030.63;5229925;28;20117;-67
2022/05/26 09:02:58;;;;;;;13.23;7.05;;;;;;;20.07;74.19;102024.03;5231149;28;20036;-67
2022/05/26 09:05:37;;;;;;;12.82;6.93;;;;;;;20.49;74.08;102022.22;5232388;28;20053;-68
2022/05/26 09:14:03;;;;;;;7.38;4.57;;;;;;;20.50;66.94;102026.59;5230297;28;20033;-67
2022/05/26 09:16:42;;;;;;;9.13;5.63;;;;;;;20.72;67.55;102035.72;5222405;28;20048;-67
2022/05/26 09:19:20;;;;;;;12.07;7.35;;;;;;;20.60;66.81;102041.38;5228688;28;20334;-68
2022/05/26 09:21:52;;;;;;;10.60;7.03;;;;;;;20.29;66.14;102038.53;5233989;28;20025;-68
2022/05/26 09:24:29;;;;;;;10.65;7.30;;;;;;;20.30;66.95;102029.53;5233530;28;20033;-68
2022/05/26 09:27:22;;;;;;;10.20;7.03;;;;;;;20.30;67.36;102039.34;5231327;28;20033;-68
2022/05/26 09:29:54;;;;;;;13.02;9.70;;;;;;;19.95;68.34;102037.81;5234529;28;20075;-68
2022/05/26 09:32:30;;;;;;;13.98;9.70;;;;;;;20.23;70.38;102048.97;5234884;28;20017;-68
2022/05/26 09:35:27;;;;;;;11.50;9.05;;;;;;;20.25;68.39;102055.00;5235452;28;20282;-68
2022/05/26 09:38:01;;;;;;;14.18;10.93;;;;;;;20.33;67.60;102052.34;5234904;28;20053;-67
2022/05/26 09:40:32;;;;;;;13.13;10.07;;;;;;;20.39;69.18;102060.50;5215531;28;20052;-67
2022/05/26 09:43:08;;;;;;;12.83;9.27;;;;;;;20.35;67.80;102063.66;5215383;28;20510;-68
2022/05/26 09:45:51;;;;;;;10.02;6.88;;;;;;;20.58;64.95;102053.22;5229365;28;20119;-68
2022/05/26 09:48:24;;;;;;;9.80;6.90;;;;;;;20.45;64.74;102060.81;5229828;28;20090;-67
2022/05/26 09:51:23;;;;;;;8.38;6.35;;;;;;;20.90;65.57;102061.19;5231056;28;20048;-68
2022/05/26 09:53:55;;;;;;;9.10;6.38;;;;;;;20.56;67.77;102072.00;5215878;28;20025;-68
2022/05/26 09:56:38;;;;;;;10.50;7.73;;;;;;;20.51;66.78;102062.88;5235236;28;20056;-68
2022/05/26 09:59:29;;;;;;;9.30;7.25;;;;;;;21.04;67.25;102065.00;5233556;28;20041;-68
2022/05/26 10:02:12;;;;;;;10.80;7.35;;;;;;;21.00;63.69;102066.34;5233018;28;20239;-68
2022/05/26 10:05:00;;;;;;;9.85;8.15;;;;;;;21.11;64.83;102065.97;5234388;28;20033;-68
2022/05/26 10:07:54;;;;;;;7.22;5.80;;;;;;;21.13;62.16;102065.81;5233505;28;20040;-68
2022/05/26 10:10:46;;;;;;;8.98;7.10;;;;;;;21.01;63.84;102069.81;5235451;28;20033;-68
2022/05/26 10:13:48;;;;;;;10.13;6.38;;;;;;;21.32;61.46;102067.25;5224968;28;20126;-68
2022/05/26 10:16:32;;;;;;;9.98;6.07;;;;;;;21.47;62.25;102064.75;5234672;28;20033;-68
2022/05/26 10:19:22;;;;;;;11.02;6.80;;;;;;;21.27;60.67;102073.09;5228667;28;20434;-68
2022/05/26 10:22:15;;;;;;;9.30;6.07;;;;;;;21.09;61.84;102075.13;5234659;28;20025;-68
2022/05/26 10:38:06;;;;;;;9.05;7.10;;;;;;;21.86;59.15;102075.44;5302159;27;20412;-69
2022/05/26 10:40:56;;;;;;;9.95;7.05;;;;;;;22.10;58.56;102067.28;5286040;28;20557;-69
2022/05/26 10:43:47;;;;;;;10.13;6.15;;;;;;;22.61;57.29;102065.94;5302568;28;20039;-69
2022/05/26 10:46:25;;;;;;;9.27;6.10;;;;;;;22.66;55.88;102071.59;5304815;28;20028;-68
2022/05/26 10:49:23;;;;;;;8.45;6.18;;;;;;;22.68;53.17;102074.88;5294873;28;20028;-68
2022/05/26 10:51:57;;;;;;;9.02;6.47;;;;;;;22.29;53.44;102075.88;5303683;28;20020;-68
2022/05/26 10:54:40;;;;;;;9.52;5.88;;;;;;;22.82;55.83;102061.56;5304081;28;20025;-69
2022/05/26 10:57:38;;;;;;;;;;;;;;;23.45;54.31;102072.81;5304738;28;20086;-69
2022/05/26 11:00:15;;;;;;;11.63;5.93;;;;;;;22.56;54.67;102069.97;5308083;28;19912;-70
2022/05/26 11:03:13;;;;;;;6.97;4.90;;;;;;;22.63;56.20;102077.28;5304785;28;20120;-69
2022/05/26 11:05:57;;;;;;;7.95;4.75;;;;;;;22.39;57.29;102071.13;5302587;28;20032;-71
2022/05/26 11:08:45;;;;;;;7.28;4.45;;;;;;;22.90;57.43;102081.22;5299936;28;20032;-69
2022/05/26 11:11:41;;;;;;;6.50;4.70;;;;;;;23.11;55.12;102092.06;5296623;28;20060;-70
2022/05/26 11:17:34;;;;;;;8.38;5.00;;;;;;;22.37;54.48;102078.47;5300281;28;20119;-68
2022/05/26 11:20:25;;;;;;;7.07;4.75;;;;;;;22.28;56.27;102076.88;5297194;28;20024;-70
2022/05/26 11:23:04;;;;;;;10.18;6.00;;;;;;;22.00;55.05;102073.84;5297536;28;20029;-69
2022/05/26 11:25:52;;;;;;;8.75;5.90;;;;;;;21.85;55.83;102074.56;5297868;28;20085;-69
2022/05/26 11:28:50;;;;;;;9.48;5.32;;;;;;;21.93;56.00;102079.03;5297269;28;20028;-69
2022/05/26 11:37:17;;;;;;;;;;;;;;;21.98;55.54;102075.88;5305460;28;20043;-70
2022/05/26 11:39:54;;;;;;;7.47;5.45;;;;;;;21.23;56.59;102058.47;5302671;28;19916;-70
2022/05/26 11:42:32;;;;;;;11.05;5.25;;;;;;;21.08;58.22;102070.81;5299264;28;20032;-69
2022/05/26 11:45:21;;;;;;;11.40;6.75;;;;;;;20.77;58.62;102079.50;5303090;28;20028;-70
2022/05/26 11:47:55;;;;;;;8.45;6.32;;;;;;;20.80;58.02;102060.53;5299142;28;20513;-70
2022/05/26 11:50:54;;;;;;;10.50;6.93;;;;;;;21.16;59.20;102062.81;5300795;28;20073;-69
2022/05/26 11:53:35;;;;;;;10.40;6.68;;;;;;;21.40;59.48;102050.44;5299905;28;20063;-69
2022/05/26 11:56:28;;;;;;;10.32;6.05;;;;;;;21.80;58.09;102044.09;5299903;28;20028;-68
2022/05/26 11:59:18;;;;;;;9.48;6.05;;;;;;;22.04;57.47;102046.63;5301350;28;20043;-69
2022/05/26 12:01:58;;;;;;;9.95;6.55;;;;;;;21.90;54.91;102050.06;5301493;28;20023;-69
2022/05/26 12:04:41;;;;;;;9.63;6.03;;;;;;;22.37;56.84;102037.59;5306049;28;20103;-69
2022/05/26 12:07:19;;;;;;;8.23;4.65;;;;;;;22.39;55.19;102046.25;5301471;28;20097;-69
2022/05/26 12:09:51;;;;;;;10.13;4.90;;;;;;;22.34;53.49;102039.59;5301766;28;20411;-68
2022/05/26 12:12:22;;;;;;;7.22;4.30;;;;;;;22.17;52.14;102042.59;5298137;28;20033;-69
2022/05/26 12:15:03;;;;;;;5.43;3.83;;;;;;;22.23;52.81;102037.34;5279599;28;20530;-69
2022/05/26 12:17:55;;;;;;;7.20;3.90;;;;;;;22.27;53.83;102038.66;5278752;28;20602;-69
2022/05/26 12:20:30;;;;;;;7.20;3.42;;;;;;;22.13;54.95;102039.41;5301922;28;20046;-69
2022/05/26 12:23:04;;;;;;;7.88;2.83;;;;;;;22.54;55.49;102031.09;5300650;28;20027;-69
2022/05/26 12:25:39;;;;;;;8.00;3.20;;;;;;;22.79;54.13;102035.22;5283067;28;20111;-69
2022/05/26 12:28:10;;;;;;;7.85;3.20;;;;;;;22.76;53.31;102030.22;5301470;28;20031;-69
2022/05/26 12:30:44;;;;;;;7.17;3.60;;;;;;;22.69;51.77;102036.47;5301719;28;20028;-69
2022/05/26 12:33:21;;;;;;;5.95;3.20;;;;;;;22.82;53.46;102034.03;5301240;28;20117;-69
2022/05/26 12:36:06;;;;;;;6.97;3.10;;;;;;;22.91;53.27;102027.59;5302047;28;20105;-69
2022/05/26 12:38:44;;;;;;;5.97;2.83;;;;;;;23.30;53.78;102029.19;5283442;28;20024;-69
2022/05/26 12:41:27;;;;;;;8.95;2.97;;;;;;;23.41;52.51;102028.75;5300152;28;20031;-69
2022/05/26 12:44:01;;;;;;;7.70;2.47;;;;;;;23.06;52.44;102025.78;5299542;28;20191;-69
2022/05/26 12:46:44;;;;;;;6.60;2.63;;;;;;;22.76;51.66;102034.75;5299176;28;20041;-70
2022/05/26 12:49:54;;;;;;;6.93;3.15;;;;;;;23.15;52.92;102037.22;5293658;28;20032;-71
2022/05/26 12:52:43;;;;;;;7.35;2.83;;;;;;;23.19;52.16;102035.84;5298639;28;20110;-70
2022/05/26 12:55:27;;;;;;;6.82;2.60;;;;;;;23.34;52.07;102035.84;5301559;28;20506;-70
2022/05/26 12:58:06;;;;;;;11.23;2.80;;;;;;;23.17;51.93;102031.69;5299488;28;20662;-70
2022/05/26 13:00:42;;;;;;;6.00;2.50;;;;;;;23.17;51.17;102027.16;5282697;28;20058;-70
2022/05/26 13:03:31;;;;;;;5.70;2.22;;;;;;;23.34;51.54;102017.13;5300051;28;20024;-70